Time;durP1;ratioP1;P1;durP2;ratioP2;P2;SDS_P1;SDS_P2;PMS_P1;PMS_P2;Temp;Humidity;BMP_temperature;BMP_pressure;BME280_temperature;BME280_humidity;BME280_pressure;Samples;Min_cycle;Max_cycle;Signal;HPM_P1;HPM_P2
2022/05/16 00:01:33;;;;;;;0.00;0.00;;;14.60;99.80;;;;;;5053256;28;20451;-76
2022/05/16 00:03:59;;;;;;;0.00;0.00;;;14.50;99.80;;;;;;5053016;28;20057;-76
2022/05/16 00:06:25;;;;;;;0.00;0.00;;;14.60;99.90;;;;;;5036361;28;20036;-77
2022/05/16 00:08:51;;;;;;;0.00;0.00;;;14.50;99.90;;;;;;5053146;28;20393;-76
2022/05/16 00:11:17;;;;;;;0.68;0.32;;;14.50;99.90;;;;;;5052486;28;20049;-77
2022/05/16 00:13:46;;;;;;;1.17;0.20;;;14.50;99.70;;;;;;5052768;28;20049;-77
2022/05/16 00:16:11;;;;;;;0.00;0.00;;;14.50;99.70;;;;;;5052713;28;20045;-77
2022/05/16 00:18:37;;;;;;;0.00;0.00;;;14.40;99.90;;;;;;5052926;28;20051;-76
2022/05/16 00:21:03;;;;;;;0.00;0.00;;;14.50;99.40;;;;;;5037011;28;20045;-77
2022/05/16 00:23:28;;;;;;;0.00;0.00;;;14.50;99.90;;;;;;5052886;28;20088;-76
2022/05/16 00:25:54;;;;;;;0.00;0.00;;;14.40;99.90;;;;;;5052637;28;20045;-77
2022/05/16 00:28:19;;;;;;;0.00;0.00;;;14.40;99.90;;;;;;5052832;28;20041;-77
2022/05/16 00:30:45;;;;;;;0.10;0.10;;;14.40;99.90;;;;;;5052843;28;20043;-77
2022/05/16 00:33:11;;;;;;;0.38;0.30;;;14.40;99.90;;;;;;5052498;28;20562;-76
2022/05/16 00:35:36;;;;;;;0.30;0.30;;;14.40;99.90;;;;;;5053265;28;20044;-77
2022/05/16 00:38:02;;;;;;;0.00;0.00;;;14.40;99.90;;;;;;5052796;28;20044;-77
2022/05/16 00:40:28;;;;;;;0.00;0.00;;;14.40;99.90;;;;;;5053009;28;20037;-76
2022/05/16 00:43:05;;;;;;;0.00;0.00;;;14.40;99.80;;;;;;5052513;28;20048;-77
2022/05/16 00:45:31;;;;;;;0.00;0.00;;;14.40;99.90;;;;;;5052237;28;20052;-76
2022/05/16 00:47:57;;;;;;;0.00;0.00;;;14.30;99.90;;;;;;5052356;28;20053;-76
2022/05/16 00:50:23;;;;;;;0.43;0.20;;;14.30;99.80;;;;;;5052345;28;20048;-76
2022/05/16 00:52:51;;;;;;;0.00;0.00;;;14.40;99.60;;;;;;5052528;28;20045;-76
2022/05/16 00:55:37;;;;;;;0.77;0.10;;;14.30;99.70;;;;;;5052700;28;20439;-76
2022/05/16 00:58:13;;;;;;;0.00;0.00;;;14.30;99.90;;;;;;5052500;28;20400;-77
2022/05/16 01:00:40;;;;;;;0.00;0.00;;;14.30;99.90;;;;;;5052232;28;20394;-76
2022/05/16 01:06:03;;;;;;;0.22;0.22;;;14.30;99.70;;;;;;5052160;28;20136;-76
2022/05/16 01:08:31;;;;;;;0.00;0.00;;;14.20;99.30;;;;;;5035382;28;20484;-76
2022/05/16 01:11:01;;;;;;;0.13;0.13;;;14.20;99.80;;;;;;5035750;28;20158;-76
2022/05/16 01:13:28;;;;;;;1.85;0.28;;;14.20;99.80;;;;;;5052140;28;20053;-76
2022/05/16 01:15:55;;;;;;;0.00;0.00;;;14.10;99.80;;;;;;5052346;28;20056;-76
2022/05/16 01:18:23;;;;;;;0.20;0.10;;;14.10;99.80;;;;;;5035682;28;20132;-76
2022/05/16 01:21:04;;;;;;;0.15;0.03;;;14.00;99.90;;;;;;5035727;28;20128;-76
2022/05/16 01:23:40;;;;;;;0.00;0.00;;;14.00;99.90;;;;;;5038288;28;20061;-76
2022/05/16 01:26:11;;;;;;;0.05;0.00;;;14.00;99.90;;;;;;5039628;28;20159;-76
2022/05/16 01:28:37;;;;;;;0.00;0.00;;;13.90;99.90;;;;;;5056210;28;20045;-76
2022/05/16 01:31:03;;;;;;;0.00;0.00;;;14.00;99.90;;;;;;5056110;28;20132;-76
2022/05/16 01:33:28;;;;;;;0.00;0.00;;;13.90;99.70;;;;;;5039344;28;20049;-76
2022/05/16 01:35:54;;;;;;;0.00;0.00;;;13.90;99.80;;;;;;5039493;28;20044;-76
2022/05/16 01:38:22;;;;;;;0.00;0.00;;;13.90;99.70;;;;;;5039352;28;20067;-76
2022/05/16 01:40:57;;;;;;;1.35;0.47;;;13.90;99.90;;;;;;5039615;28;20083;-76
2022/05/16 01:43:29;;;;;;;0.10;0.00;;;13.80;99.80;;;;;;5039211;28;20053;-76
2022/05/16 01:45:55;;;;;;;0.00;0.00;;;13.80;99.40;;;;;;5055254;28;20060;-77
2022/05/16 01:48:22;;;;;;;0.47;0.30;;;13.80;99.50;;;;;;5055878;28;20060;-76
2022/05/16 01:50:49;;;;;;;0.35;0.30;;;13.80;99.50;;;;;;5055680;28;20443;-76
2022/05/16 01:53:16;;;;;;;0.00;0.00;;;13.80;99.80;;;;;;5055392;28;20048;-76
2022/05/16 01:55:41;;;;;;;0.00;0.00;;;13.80;99.80;;;;;;5039271;28;20048;-76
2022/05/16 01:58:09;;;;;;;0.00;0.00;;;13.80;99.70;;;;;;5055599;28;20041;-76
2022/05/16 02:00:36;;;;;;;0.00;0.00;;;13.70;99.60;;;;;;5038921;28;20049;-77
2022/05/16 02:03:03;;;;;;;0.00;0.00;;;13.70;99.40;;;;;;5039126;28;20053;-76
2022/05/16 02:05:29;;;;;;;0.00;0.00;;;13.70;99.30;;;;;;5055472;28;20044;-77
2022/05/16 02:07:54;;;;;;;0.00;0.00;;;13.60;99.50;;;;;;5055473;28;20439;-76
2022/05/16 02:10:24;;;;;;;0.00;0.00;;;13.60;99.80;;;;;;5038726;28;20136;-77
2022/05/16 02:12:52;;;;;;;0.00;0.00;;;13.60;99.80;;;;;;5055320;28;20187;-76
2022/05/16 02:15:22;;;;;;;0.00;0.00;;;13.60;99.50;;;;;;5055357;28;20190;-76
2022/05/16 02:17:47;;;;;;;0.38;0.10;;;13.60;99.50;;;;;;5038718;28;20467;-76
2022/05/16 02:20:14;;;;;;;0.00;0.00;;;13.50;99.50;;;;;;5055334;28;20139;-76
2022/05/16 02:25:25;;;;;;;0.00;0.00;;;13.50;99.70;;;;;;5055099;28;20552;-76
2022/05/16 02:27:51;;;;;;;0.05;0.03;;;13.50;99.70;;;;;;5055120;28;20545;-76
2022/05/16 02:30:18;;;;;;;0.00;0.00;;;13.50;99.60;;;;;;5055125;28;20385;-76
2022/05/16 02:32:44;;;;;;;0.43;0.10;;;13.50;99.30;;;;;;5055086;28;20049;-77
2022/05/16 02:35:10;;;;;;;0.00;0.00;;;13.40;99.80;;;;;;5038342;28;20477;-76
2022/05/16 02:37:36;;;;;;;0.00;0.00;;;13.40;99.90;;;;;;5038379;28;20477;-76
2022/05/16 02:40:02;;;;;;;0.00;0.00;;;13.40;99.80;;;;;;5054793;28;20045;-76
2022/05/16 02:42:28;;;;;;;0.00;0.00;;;13.40;99.70;;;;;;5054191;28;20044;-76
2022/05/16 02:44:54;;;;;;;0.08;0.00;;;13.40;99.60;;;;;;5054847;28;20048;-77
2022/05/16 02:47:21;;;;;;;1.10;0.40;;;13.30;99.60;;;;;;5037733;28;20095;-76
2022/05/16 02:49:48;;;;;;;1.20;0.73;;;13.30;99.20;;;;;;5037885;28;20136;-77
2022/05/16 02:52:14;;;;;;;0.00;0.00;;;13.30;99.30;;;;;;5054627;28;20045;-77
2022/05/16 02:54:40;;;;;;;0.38;0.38;;;13.20;99.60;;;;;;5054518;28;20049;-76
2022/05/16 02:57:07;;;;;;;0.90;0.43;;;13.20;99.60;;;;;;5037897;28;20045;-77
2022/05/16 02:59:34;;;;;;;0.00;0.00;;;13.20;99.70;;;;;;5054470;28;20533;-76
2022/05/16 03:02:02;;;;;;;0.38;0.25;;;13.20;99.70;;;;;;5054359;28;20040;-76
2022/05/16 03:04:28;;;;;;;0.65;0.22;;;13.20;99.70;;;;;;5054525;28;20053;-77
2022/05/16 03:06:54;;;;;;;0.00;0.00;;;13.10;99.70;;;;;;5037826;28;20057;-76
2022/05/16 03:09:21;;;;;;;2.03;0.70;;;13.10;99.60;;;;;;5037438;28;20068;-76
2022/05/16 03:11:47;;;;;;;0.00;0.00;;;13.10;99.30;;;;;;5054151;28;20136;-76
2022/05/16 03:14:13;;;;;;;0.47;0.47;;;13.10;99.70;;;;;;5054230;28;20136;-76
2022/05/16 03:16:39;;;;;;;0.10;0.10;;;13.10;99.50;;;;;;5037462;28;20088;-77
2022/05/16 03:19:05;;;;;;;1.88;0.47;;;13.10;99.30;;;;;;5037667;28;20056;-76
2022/05/16 03:21:32;;;;;;;0.30;0.20;;;13.10;99.60;;;;;;5054174;28;20075;-76
2022/05/16 03:23:58;;;;;;;2.08;0.32;;;13.10;99.20;;;;;;5037106;28;20053;-76
2022/05/16 03:26:24;;;;;;;0.00;0.00;;;13.10;99.50;;;;;;5036989;28;20496;-76
2022/05/16 03:28:50;;;;;;;0.00;0.00;;;13.10;99.60;;;;;;5037464;28;20037;-76
2022/05/16 03:31:16;;;;;;;0.00;0.00;;;13.10;99.60;;;;;;5037225;28;20140;-76
2022/05/16 03:33:42;;;;;;;4.13;0.30;;;13.00;99.40;;;;;;5037176;28;20052;-76
2022/05/16 03:36:09;;;;;;;0.00;0.00;;;13.00;99.60;;;;;;5037329;28;20052;-77
2022/05/16 03:41:19;;;;;;;6.00;0.35;;;13.00;99.70;;;;;;5053759;28;20144;-77
2022/05/16 03:43:45;;;;;;;0.80;0.35;;;13.00;99.80;;;;;;5053699;28;20139;-77
2022/05/16 03:46:11;;;;;;;0.00;0.00;;;13.00;99.30;;;;;;5052327;28;20128;-77
2022/05/16 03:48:37;;;;;;;0.00;0.00;;;12.90;99.60;;;;;;5036859;28;20096;-76
2022/05/16 03:51:05;;;;;;;0.05;0.00;;;12.90;99.80;;;;;;5053477;28;20120;-77
2022/05/16 03:53:31;;;;;;;0.00;0.00;;;12.90;99.90;;;;;;5054081;28;20179;-77
2022/05/16 03:55:57;;;;;;;0.00;0.00;;;12.90;99.90;;;;;;5053348;28;20497;-77
2022/05/16 03:58:23;;;;;;;0.00;0.00;;;12.90;99.80;;;;;;5053533;28;20047;-77
2022/05/16 04:00:48;;;;;;;0.00;0.00;;;12.90;99.90;;;;;;5053526;28;20043;-78
2022/05/16 04:03:15;;;;;;;0.00;0.00;;;12.90;99.80;;;;;;5053260;28;20040;-77
2022/05/16 04:05:41;;;;;;;0.45;0.38;;;12.90;99.60;;;;;;5052784;28;20133;-77
2022/05/16 04:08:07;;;;;;;0.00;0.00;;;12.90;99.90;;;;;;5052833;28;20048;-77
2022/05/16 04:10:33;;;;;;;0.00;0.00;;;12.90;99.70;;;;;;5053130;28;20088;-77
2022/05/16 04:12:59;;;;;;;0.00;0.00;;;12.90;99.90;;;;;;5036436;28;20496;-77
2022/05/16 04:15:25;;;;;;;0.00;0.00;;;12.90;99.90;;;;;;5036527;28;20136;-77
2022/05/16 04:17:51;;;;;;;0.00;0.00;;;13.00;99.90;;;;;;5036459;28;20124;-78
2022/05/16 04:20:18;;;;;;;0.00;0.00;;;13.00;99.90;;;;;;5052974;28;20469;-77
2022/05/16 04:22:44;;;;;;;0.00;0.00;;;13.00;99.90;;;;;;5053163;28;20036;-77
2022/05/16 04:25:13;;;;;;;0.00;0.00;;;13.10;99.90;;;;;;5036485;28;20080;-77
2022/05/16 04:27:39;;;;;;;0.30;0.00;;;13.00;99.90;;;;;;5036334;28;20041;-79
2022/05/16 04:30:06;;;;;;;0.00;0.00;;;13.10;99.90;;;;;;5052567;28;20041;-79
2022/05/16 04:32:32;;;;;;;0.25;0.25;;;13.10;99.90;;;;;;5052625;28;20036;-79
2022/05/16 04:34:58;;;;;;;0.00;0.00;;;13.10;99.90;;;;;;5036890;28;20190;-79
2022/05/16 04:37:23;;;;;;;0.00;0.00;;;13.10;99.90;;;;;;5052800;28;20049;-79
2022/05/16 04:39:49;;;;;;;0.00;0.00;;;13.10;99.90;;;;;;5052894;28;20048;-78
2022/05/16 04:44:59;;;;;;;0.25;0.08;;;13.10;99.90;;;;;;5052467;28;20056;-78
2022/05/16 04:47:26;;;;;;;0.00;0.00;;;13.10;99.90;;;;;;5052743;28;20045;-79
2022/05/16 04:49:52;;;;;;;0.00;0.00;;;13.10;99.90;;;;;;5052626;28;20045;-79
2022/05/16 04:52:18;;;;;;;0.00;0.00;;;13.20;99.90;;;;;;5036015;28;20049;-79
2022/05/16 04:54:46;;;;;;;0.00;0.00;;;13.20;99.90;;;;;;5052782;28;20056;-79
2022/05/16 04:57:11;;;;;;;0.00;0.00;;;13.30;99.90;;;;;;5041316;28;20059;-80
2022/05/16 04:59:37;;;;;;;0.00;0.00;;;13.30;99.90;;;;;;5062268;28;20036;-79
2022/05/16 05:02:03;;;;;;;0.08;0.08;;;13.30;99.90;;;;;;5062361;28;20040;-79
2022/05/16 05:04:29;;;;;;;0.00;0.00;;;13.30;99.90;;;;;;5060863;28;20057;-79
2022/05/16 05:06:54;;;;;;;0.00;0.00;;;13.30;99.90;;;;;;5045257;28;20045;-79
2022/05/16 05:09:20;;;;;;;0.00;0.00;;;13.30;99.90;;;;;;5061892;28;20051;-79
2022/05/16 05:14:33;;;;;;;0.08;0.08;;;13.40;99.90;;;;;;5061268;28;20083;-78
2022/05/16 05:17:03;;;;;;;0.03;0.03;;;13.40;99.90;;;;;;5044896;28;20070;-79
2022/05/16 05:19:29;;;;;;;0.00;0.00;;;13.50;99.90;;;;;;5052454;28;20049;-79
2022/05/16 05:21:54;;;;;;;0.13;0.13;;;13.50;99.90;;;;;;5052636;28;20045;-79
2022/05/16 05:24:20;;;;;;;0.00;0.00;;;13.50;99.90;;;;;;5035750;28;20493;-79
2022/05/16 05:26:47;;;;;;;0.00;0.00;;;13.60;99.80;;;;;;5052001;28;20476;-78
2022/05/16 05:29:13;;;;;;;0.22;0.00;;;13.60;99.90;;;;;;5035485;28;20099;-79
2022/05/16 05:31:41;;;;;;;0.00;0.00;;;13.70;99.90;;;;;;5036102;28;20392;-78
2022/05/16 05:34:08;;;;;;;0.00;0.00;;;13.90;99.90;;;;;;5052304;28;20630;-79
2022/05/16 05:36:35;;;;;;;0.00;0.00;;;13.90;99.90;;;;;;5052350;28;20107;-79
2022/05/16 05:39:02;;;;;;;0.00;0.00;;;14.10;99.90;;;;;;5052239;28;20116;-79
2022/05/16 05:41:28;;;;;;;0.08;0.08;;;14.40;99.90;;;;;;5035858;28;20131;-79
2022/05/16 05:43:54;;;;;;;0.00;0.00;;;14.80;99.70;;;;;;5052057;28;20060;-78
2022/05/16 05:46:20;;;;;;;0.00;0.00;;;15.00;98.90;;;;;;5052217;28;20061;-79
2022/05/16 05:48:46;;;;;;;0.88;0.30;;;15.20;98.70;;;;;;5053003;28;20060;-79
2022/05/16 05:51:14;;;;;;;0.45;0.45;;;15.20;98.40;;;;;;5053024;28;20048;-79
2022/05/16 05:53:41;;;;;;;0.00;0.00;;;15.20;98.10;;;;;;5052519;28;20087;-78
2022/05/16 05:56:08;;;;;;;0.00;0.00;;;15.10;98.40;;;;;;5035742;28;20095;-79
2022/05/16 05:58:34;;;;;;;0.75;0.28;;;15.10;97.90;;;;;;5036084;28;20127;-78
2022/05/16 06:01:01;;;;;;;0.00;0.00;;;15.10;98.40;;;;;;5052816;28;20041;-79
2022/05/16 06:03:27;;;;;;;1.65;0.10;;;15.10;98.40;;;;;;5052683;28;20505;-79
2022/05/16 06:05:53;;;;;;;0.00;0.00;;;15.10;98.10;;;;;;5052428;28;20041;-79
2022/05/16 06:08:19;;;;;;;0.00;0.00;;;15.10;98.50;;;;;;5035670;28;20114;-79
2022/05/16 06:10:45;;;;;;;0.00;0.00;;;15.10;98.20;;;;;;5055429;28;20041;-80
2022/05/16 06:13:11;;;;;;;0.00;0.00;;;15.10;97.90;;;;;;5056217;28;20041;-79
2022/05/16 06:15:37;;;;;;;0.10;0.10;;;15.20;98.20;;;;;;5055972;28;20048;-79
2022/05/16 06:18:03;;;;;;;0.00;0.00;;;15.20;97.80;;;;;;5056026;28;20041;-79
2022/05/16 06:20:29;;;;;;;0.10;0.00;;;15.20;98.10;;;;;;5055356;28;20054;-78
2022/05/16 06:22:55;;;;;;;0.22;0.00;;;15.30;98.30;;;;;;5059653;28;20048;-79
2022/05/16 06:25:31;;;;;;;0.10;0.10;;;15.40;98.60;;;;;;5046628;28;20120;-79
2022/05/16 06:28:05;;;;;;;0.00;0.00;;;15.50;98.20;;;;;;5063213;28;20032;-79
2022/05/16 06:30:34;;;;;;;0.00;0.00;;;15.60;98.30;;;;;;5062493;28;20128;-80
2022/05/16 06:33:00;;;;;;;2.42;0.40;;;15.70;98.10;;;;;;5062105;28;20043;-79
2022/05/16 06:35:25;;;;;;;1.27;0.55;;;15.90;98.10;;;;;;5045232;28;20099;-79
2022/05/16 06:37:51;;;;;;;0.03;0.03;;;16.00;97.50;;;;;;5059455;28;20405;-79
2022/05/16 06:40:19;;;;;;;0.00;0.00;;;16.20;97.70;;;;;;5042491;28;20397;-79
2022/05/16 06:42:46;;;;;;;0.00;0.00;;;16.40;97.10;;;;;;5057271;28;20068;-79
2022/05/16 06:45:13;;;;;;;0.00;0.00;;;16.50;96.90;;;;;;5055514;28;20132;-79
2022/05/16 06:47:39;;;;;;;0.00;0.00;;;16.60;95.90;;;;;;5055515;28;20150;-79
2022/05/16 06:50:05;;;;;;;0.00;0.00;;;16.70;96.10;;;;;;5055173;28;20092;-79
2022/05/16 06:52:31;;;;;;;1.75;0.52;;;16.90;96.10;;;;;;5039301;28;20056;-78
2022/05/16 06:54:56;;;;;;;0.20;0.20;;;17.00;96.20;;;;;;5038385;28;20057;-80
2022/05/16 06:57:22;;;;;;;0.00;0.00;;;17.20;95.80;;;;;;5055103;28;20044;-79
2022/05/16 06:59:48;;;;;;;2.67;0.70;;;17.30;95.50;;;;;;5054986;28;20049;-79
2022/05/16 07:02:14;;;;;;;0.00;0.00;;;17.40;95.10;;;;;;5055070;28;20048;-80
2022/05/16 07:04:40;;;;;;;0.15;0.10;;;17.60;94.60;;;;;;5054655;28;20052;-79
2022/05/16 07:07:12;;;;;;;0.00;0.00;;;17.70;94.10;;;;;;5054690;28;20085;-79
2022/05/16 07:09:41;;;;;;;0.00;0.00;;;17.90;95.00;;;;;;5038058;28;20041;-79
2022/05/16 07:12:08;;;;;;;0.22;0.22;;;18.10;94.80;;;;;;5054749;28;20087;-80
2022/05/16 07:14:35;;;;;;;0.00;0.00;;;18.20;94.00;;;;;;5054712;28;20055;-80
2022/05/16 07:17:04;;;;;;;0.03;0.03;;;18.30;92.80;;;;;;5054555;28;20393;-80
2022/05/16 07:19:31;;;;;;;0.00;0.00;;;18.50;93.10;;;;;;5054502;28;20053;-79
2022/05/16 07:21:58;;;;;;;0.00;0.00;;;18.70;93.20;;;;;;5037526;28;20052;-79
2022/05/16 07:24:23;;;;;;;0.00;0.00;;;18.90;91.90;;;;;;5037429;28;20061;-79
2022/05/16 07:29:33;;;;;;;0.00;0.00;;;19.40;92.60;;;;;;5054272;28;20044;-79
2022/05/16 07:31:59;;;;;;;0.00;0.00;;;19.60;91.50;;;;;;5054672;28;20049;-79
2022/05/16 07:34:24;;;;;;;0.25;0.20;;;19.80;91.00;;;;;;5037560;28;20396;-79
2022/05/16 07:36:50;;;;;;;0.00;0.00;;;20.00;90.90;;;;;;5037883;28;20076;-79
2022/05/16 07:39:16;;;;;;;0.30;0.30;;;20.10;90.00;;;;;;5037613;28;20057;-80
2022/05/16 07:41:42;;;;;;;0.00;0.00;;;20.30;90.70;;;;;;5053629;28;20041;-80
2022/05/16 07:44:08;;;;;;;0.00;0.00;;;20.50;90.00;;;;;;5053896;28;20493;-79
2022/05/16 07:46:33;;;;;;;0.00;0.00;;;20.60;89.80;;;;;;5036867;28;20052;-79
2022/05/16 07:48:59;;;;;;;0.00;0.00;;;20.70;90.20;;;;;;5053904;28;20067;-80
2022/05/16 07:51:24;;;;;;;1.30;0.47;;;20.80;88.10;;;;;;5036965;28;20040;-80
2022/05/16 07:53:50;;;;;;;0.65;0.47;;;21.00;88.50;;;;;;5053681;28;20059;-79
2022/05/16 07:56:16;;;;;;;0.00;0.00;;;21.10;89.10;;;;;;5036789;28;20056;-79
2022/05/16 07:58:42;;;;;;;0.00;0.00;;;21.10;85.90;;;;;;5053449;28;20045;-80
2022/05/16 08:01:07;;;;;;;0.15;0.15;;;21.10;87.80;;;;;;5053486;28;20033;-79
2022/05/16 08:03:33;;;;;;;0.00;0.00;;;21.20;87.20;;;;;;5036634;28;20111;-79
2022/05/16 08:05:59;;;;;;;0.30;0.20;;;21.20;85.20;;;;;;5053223;28;20037;-79
2022/05/16 08:11:11;;;;;;;0.10;0.10;;;21.30;85.70;;;;;;5053307;28;20485;-79
2022/05/16 08:13:38;;;;;;;0.00;0.00;;;21.30;85.90;;;;;;5053051;28;20045;-79
2022/05/16 08:16:04;;;;;;;0.00;0.00;;;21.40;85.60;;;;;;5053270;28;20052;-79
2022/05/16 08:18:29;;;;;;;0.00;0.00;;;21.60;84.40;;;;;;5052935;28;20045;-79
2022/05/16 08:20:55;;;;;;;0.00;0.00;;;21.90;88.20;;;;;;5036616;28;20053;-80
2022/05/16 08:23:25;;;;;;;0.28;0.20;;;22.00;82.00;;;;;;5053322;28;20532;-80
2022/05/16 08:25:56;;;;;;;0.30;0.30;;;22.10;81.10;;;;;;5052942;28;20098;-79
2022/05/16 08:28:22;;;;;;;0.00;0.00;;;22.20;81.80;;;;;;5036761;28;20083;-79
2022/05/16 08:30:49;;;;;;;0.00;0.00;;;22.30;79.50;;;;;;5053001;28;20510;-79
2022/05/16 08:33:15;;;;;;;0.00;0.00;;;22.40;79.00;;;;;;5035887;28;20055;-79
2022/05/16 08:35:41;;;;;;;0.32;0.20;;;22.50;79.20;;;;;;5036161;28;20052;-78
2022/05/16 08:41:02;;;;;;;0.10;0.10;;;22.60;79.00;;;;;;5053536;28;20044;-79
2022/05/16 08:43:46;;;;;;;0.20;0.00;;;22.90;81.40;;;;;;5036267;28;20056;-79
2022/05/16 08:46:43;;;;;;;0.93;0.40;;;23.00;78.00;;;;;;5052039;28;20136;-79
2022/05/16 08:49:34;;;;;;;0.00;0.00;;;23.10;77.30;;;;;;5052174;28;20447;-79
2022/05/16 08:52:30;;;;;;;0.15;0.13;;;23.30;78.80;;;;;;5036097;28;20103;-79
2022/05/16 08:55:28;;;;;;;0.82;0.17;;;23.50;79.10;;;;;;5052362;28;20488;-78
2022/05/16 08:58:09;;;;;;;0.00;0.00;;;23.60;77.60;;;;;;5052867;28;20044;-78
2022/05/16 09:00:54;;;;;;;0.15;0.00;;;23.60;77.50;;;;;;5052786;28;20049;-78
2022/05/16 09:03:39;;;;;;;0.10;0.10;;;23.70;76.80;;;;;;5052810;28;20453;-79
2022/05/16 09:06:13;;;;;;;0.00;0.00;;;23.60;75.00;;;;;;5036061;28;20045;-78
2022/05/16 09:08:56;;;;;;;0.00;0.00;;;23.60;74.60;;;;;;5053073;28;20048;-78
2022/05/16 09:11:40;;;;;;;0.20;0.00;;;23.60;74.90;;;;;;5035912;28;20059;-79
2022/05/16 09:14:26;;;;;;;1.45;0.80;;;23.40;75.00;;;;;;5036144;28;20051;-78
2022/05/16 09:17:02;;;;;;;0.40;0.20;;;23.30;74.50;;;;;;5052587;28;20480;-78
2022/05/16 09:20:04;;;;;;;0.82;0.43;;;23.30;73.30;;;;;;5052380;28;20056;-78
2022/05/16 09:22:46;;;;;;;0.63;0.15;;;23.40;74.10;;;;;;5036396;28;20431;-78
2022/05/16 09:25:16;;;;;;;0.05;0.05;;;23.50;74.90;;;;;;5035951;28;20041;-79
2022/05/16 09:30:32;;;;;;;0.00;0.00;;;24.00;74.90;;;;;;5052289;28;20135;-79
2022/05/16 09:33:14;;;;;;;0.00;0.00;;;24.30;72.80;;;;;;5052293;28;20140;-79
2022/05/16 09:35:54;;;;;;;20.83;0.65;;;24.60;72.70;;;;;;5035455;28;20057;-79
2022/05/16 09:38:22;;;;;;;0.00;0.00;;;24.80;72.70;;;;;;5052575;28;20100;-79
2022/05/16 09:41:09;;;;;;;0.03;0.00;;;25.10;74.80;;;;;;5052074;28;20178;-79
2022/05/16 09:43:42;;;;;;;0.03;0.00;;;25.30;69.50;;;;;;5052488;28;20052;-79
2022/05/16 09:46:20;;;;;;;0.10;0.08;;;25.40;69.60;;;;;;5039489;28;20068;-80
2022/05/16 09:48:45;;;;;;;0.00;0.00;;;25.40;69.60;;;;;;5055492;28;20052;-80
2022/05/16 09:51:11;;;;;;;0.20;0.10;;;25.50;69.20;;;;;;5055673;28;20404;-80
2022/05/16 09:53:43;;;;;;;2.35;1.30;;;25.80;72.60;;;;;;5039171;28;20049;-79
2022/05/16 09:56:25;;;;;;;0.00;0.00;;;25.80;68.00;;;;;;5039067;28;20045;-79
2022/05/16 09:58:54;;;;;;;0.90;0.28;;;26.00;69.70;;;;;;5055827;28;20052;-80
2022/05/16 10:01:40;;;;;;;0.00;0.00;;;26.40;69.30;;;;;;5055736;28;20049;-80
2022/05/16 10:04:18;;;;;;;0.20;0.10;;;26.70;67.20;;;;;;5039685;28;20056;-79
2022/05/16 10:07:03;;;;;;;4.43;1.13;;;27.00;67.00;;;;;;5055720;28;20049;-79
2022/05/16 10:09:37;;;;;;;0.32;0.10;;;27.10;64.70;;;;;;5038925;28;20064;-79
2022/05/16 10:12:08;;;;;;;0.00;0.00;;;27.20;66.50;;;;;;5055477;28;20056;-79
2022/05/16 10:14:37;;;;;;;0.00;0.00;;;27.10;65.10;;;;;;5038679;28;20059;-79
2022/05/16 10:17:05;;;;;;;0.00;0.00;;;26.90;64.30;;;;;;5038987;28;20041;-80
2022/05/16 10:19:32;;;;;;;0.20;0.20;;;26.70;63.30;;;;;;5055382;28;20098;-80
2022/05/16 10:22:25;;;;;;;0.00;0.00;;;26.50;64.00;;;;;;5038695;28;20157;-80
2022/05/16 10:24:55;;;;;;;0.00;0.00;;;26.40;64.30;;;;;;5055763;28;20049;-80
2022/05/16 10:27:26;;;;;;;0.00;0.00;;;26.40;63.40;;;;;;5055317;28;20045;-79
2022/05/16 10:29:55;;;;;;;0.00;0.00;;;26.20;64.20;;;;;;5055506;28;20489;-80
2022/05/16 10:35:16;;;;;;;0.68;0.30;;;26.10;66.10;;;;;;5055136;28;20064;-80
2022/05/16 10:37:45;;;;;;;0.00;0.00;;;26.00;66.40;;;;;;5055154;28;20049;-80
2022/05/16 10:40:27;;;;;;;0.00;0.00;;;26.00;64.60;;;;;;5038512;28;20061;-80
2022/05/16 10:43:20;;;;;;;0.75;0.47;;;25.70;65.90;;;;;;5055019;28;20053;-80
2022/05/16 10:45:52;;;;;;;0.00;0.00;;;25.50;65.20;;;;;;5054978;28;20041;-80
2022/05/16 10:48:41;;;;;;;0.00;0.00;;;25.40;66.00;;;;;;5038036;28;20053;-80
2022/05/16 10:51:18;;;;;;;0.25;0.15;;;25.30;68.40;;;;;;5054878;28;20052;-79
2022/05/16 10:53:59;;;;;;;0.25;0.25;;;25.20;66.60;;;;;;5054757;28;20044;-79
2022/05/16 10:56:51;;;;;;;0.00;0.00;;;25.00;67.40;;;;;;5055018;28;20049;-79
2022/05/16 10:59:38;;;;;;;0.00;0.00;;;24.90;67.90;;;;;;5054739;28;20052;-80
2022/05/16 11:02:24;;;;;;;0.00;0.00;;;24.70;70.10;;;;;;5054856;28;20378;-79
2022/05/16 11:05:07;;;;;;;0.00;0.00;;;24.70;70.00;;;;;;5038842;28;20122;-79
2022/05/16 11:08:03;;;;;;;0.00;0.00;;;24.60;70.50;;;;;;5037937;28;20124;-79
2022/05/16 11:10:39;;;;;;;0.00;0.00;;;24.50;71.10;;;;;;5037891;28;20049;-79
2022/05/16 11:13:29;;;;;;;0.08;0.08;;;24.40;70.80;;;;;;5037742;28;20453;-80
2022/05/16 11:16:08;;;;;;;0.00;0.00;;;24.30;71.60;;;;;;5054601;28;20052;-79
2022/05/16 11:18:34;;;;;;;0.00;0.00;;;24.10;71.90;;;;;;5054664;28;20061;-79
2022/05/16 11:21:33;;;;;;;1.08;0.32;;;24.00;73.00;;;;;;5053930;28;20052;-79
2022/05/16 11:24:04;;;;;;;0.20;0.10;;;23.90;73.30;;;;;;5036683;28;20057;-80
2022/05/16 11:26:39;;;;;;;0.03;0.00;;;23.90;75.70;;;;;;5036639;28;20049;-79
2022/05/16 11:29:29;;;;;;;1.27;0.05;;;23.80;75.20;;;;;;5036640;28;20064;-79
2022/05/16 11:32:06;;;;;;;14.45;0.47;;;23.80;76.20;;;;;;5036682;28;20044;-79
2022/05/16 11:34:56;;;;;;;0.00;0.00;;;23.70;76.00;;;;;;5020414;28;20057;-80
2022/05/16 11:37:56;;;;;;;0.00;0.00;;;23.60;76.10;;;;;;5036485;28;20055;-79
2022/05/16 11:40:44;;;;;;;0.00;0.00;;;23.60;75.20;;;;;;5035508;28;20055;-80
2022/05/16 11:43:16;;;;;;;0.77;0.03;;;23.50;76.20;;;;;;5019524;28;20060;-80
2022/05/16 11:46:24;;;;;;;0.00;0.00;;;23.50;76.90;;;;;;5036141;28;20049;-79
2022/05/16 11:49:05;;;;;;;0.00;0.00;;;23.50;75.50;;;;;;5035734;28;20171;-79
2022/05/16 11:51:58;;;;;;;0.00;0.00;;;23.50;76.80;;;;;;5036162;28;20122;-80
2022/05/16 11:54:28;;;;;;;0.10;0.00;;;23.50;77.80;;;;;;5019673;28;20080;-79
2022/05/16 12:02:28;;;;;;;0.00;0.00;;;23.60;77.90;;;;;;5053697;28;20048;-79
2022/05/16 12:05:07;;;;;;;0.00;0.00;;;23.70;77.00;;;;;;5053906;28;20137;-79
2022/05/16 12:07:36;;;;;;;0.10;0.00;;;23.80;77.10;;;;;;5053119;28;20460;-80
2022/05/16 12:10:10;;;;;;;0.00;0.00;;;23.90;76.10;;;;;;5036837;28;20056;-79
2022/05/16 12:12:47;;;;;;;0.03;0.00;;;24.00;75.80;;;;;;5053502;28;20136;-79
2022/05/16 12:15:16;;;;;;;0.00;0.00;;;24.20;76.40;;;;;;5053460;28;20493;-79
2022/05/16 12:17:58;;;;;;;0.00;0.00;;;24.20;75.70;;;;;;5036686;28;20084;-79
2022/05/16 12:20:37;;;;;;;0.00;0.00;;;24.30;76.00;;;;;;5053831;28;20052;-79
2022/05/16 12:23:05;;;;;;;0.00;0.00;;;24.40;77.20;;;;;;5036801;28;20397;-79
2022/05/16 12:25:34;;;;;;;0.00;0.00;;;24.40;77.10;;;;;;5036544;28;20049;-79
2022/05/16 12:28:12;;;;;;;0.10;0.00;;;24.40;76.00;;;;;;5036912;28;20053;-79
2022/05/16 12:30:38;;;;;;;0.00;0.00;;;24.30;75.80;;;;;;5053662;28;20041;-79
2022/05/16 12:33:06;;;;;;;0.00;0.00;;;24.20;76.50;;;;;;5053096;28;20435;-79
2022/05/16 12:35:38;;;;;;;0.00;0.00;;;24.20;78.40;;;;;;5053102;28;20114;-79
2022/05/16 12:38:05;;;;;;;0.00;0.00;;;24.10;78.20;;;;;;5036076;28;20139;-79
2022/05/16 12:41:04;;;;;;;0.00;0.00;;;24.10;77.70;;;;;;5053554;28;20052;-79
2022/05/16 12:43:41;;;;;;;0.03;0.03;;;24.10;77.10;;;;;;5052893;28;20044;-79
2022/05/16 12:46:16;;;;;;;0.47;0.08;;;24.10;78.00;;;;;;5036102;28;20130;-79
2022/05/16 12:48:52;;;;;;;0.00;0.00;;;24.00;77.20;;;;;;5052331;28;20121;-80
2022/05/16 12:51:31;;;;;;;0.43;0.30;;;24.00;77.00;;;;;;5052849;28;20053;-80
2022/05/16 12:54:07;;;;;;;0.00;0.00;;;24.00;78.00;;;;;;5053019;28;20052;-79
2022/05/16 12:56:58;;;;;;;0.00;0.00;;;24.10;77.80;;;;;;5052819;28;20047;-80
2022/05/16 12:59:48;;;;;;;0.00;0.00;;;24.10;77.90;;;;;;5052247;28;20199;-79
2022/05/16 13:02:45;;;;;;;0.32;0.10;;;24.20;78.60;;;;;;5036249;28;20060;-79
2022/05/16 13:05:26;;;;;;;0.00;0.00;;;24.30;78.00;;;;;;5052689;28;20049;-79
2022/05/16 13:08:09;;;;;;;0.00;0.00;;;24.40;78.80;;;;;;5053124;28;20041;-79
2022/05/16 13:10:37;;;;;;;0.22;0.05;;;24.40;77.40;;;;;;5035963;28;20053;-79
2022/05/16 13:13:18;;;;;;;0.00;0.00;;;24.40;79.60;;;;;;5036076;28;20060;-80
2022/05/16 13:16:25;;;;;;;0.65;0.10;;;24.50;79.00;;;;;;5053237;28;20089;-79
2022/05/16 13:19:13;;;;;;;1.17;0.20;;;24.50;78.40;;;;;;5020533;28;20064;-80
2022/05/16 13:21:51;;;;;;;8.38;0.52;;;24.60;77.50;;;;;;5022066;28;20493;-79
2022/05/16 13:24:20;;;;;;;0.00;0.00;;;24.60;77.80;;;;;;5039445;28;20535;-80
2022/05/16 13:29:34;;;;;;;0.10;0.10;;;24.60;76.90;;;;;;5038789;28;20053;-80
2022/05/16 13:32:12;;;;;;;0.00;0.00;;;24.60;79.00;;;;;;5038790;28;20047;-78
2022/05/16 13:34:47;;;;;;;0.70;0.55;;;24.60;78.30;;;;;;5038699;28;20049;-78
2022/05/16 13:37:18;;;;;;;0.77;0.63;;;24.50;77.40;;;;;;5038543;28;20531;-80
2022/05/16 13:39:47;;;;;;;0.13;0.08;;;24.50;78.60;;;;;;5038514;28;20052;-78
2022/05/16 13:42:13;;;;;;;0.85;0.32;;;24.70;77.80;;;;;;5022147;28;20049;-78
2022/05/16 13:44:47;;;;;;;1.75;0.30;;;24.80;78.70;;;;;;5021484;28;20643;-78